Aérodrome :
LOGIN :

S'inscrire | Disclaimer

   EN    FR    IT 

 










Légende :    VFR   VFR Marginal   IFR   IFR Intensif   IFR Très Intensif
Visi : 
Plafond : 
>= 8 km
>= 3000ft
5 à 8 km
1000 à 3000 ft
1500m à 5 km
500 à 1000 ft
800 à 1500m
200 à 500 ft
< 800m
< 200 ft
Symboles :   Orages  Brouillard  Fortes neiges  Fortes précipitations  Vent > 20 kt
SIGMETs :   Divers  Orages  Givrage  Turbulence  Onde Orograph.  Cendres Volcan.






- Altitude de l'aérodrome : 25 ft
- Code IATA : QCY


EGXC - RAF Coningsby

DERNIER METAR :
  • 151150Z 04010KT 9999 FEW020 BKN040 09/06 Q1006 NOSIG RMK BLU BLU

METARs EXPIRÉS :
  • 151123Z 04010KT 9999 FEW020 SCT045 BKN160 09/06 Q1006 NOSIG RMK BLU BLU
  • 151050Z 04010KT 9999 FEW020 BKN160 09/06 Q1006 NOSIG RMK BLU BLU
  • 151020Z 03009KT 9999 FEW020 SCT150 BKN250 09/06 Q1007 NOSIG RMK BLU BLU
  • 150950Z 04009KT 9999 FEW020 BKN120 09/06 Q1007 NOSIG RMK BLU BLU

TAF TAF EGXC
Valide du 15 à 12h jusqu'au 16 à 06h UTC


151045Z 1512/1606 03012KT 9999 SCT025
PROB30
TEMPO 1512/1516 SCT020
PROB40
TEMPO 1514/1520 02015G25KT
BECMG 1516/1519 BKN020
TEMPO 1518/1522 7000 RA
PROB40 1518/1524 SCT010
PROB30
TEMPO 1520/1522 4000 +RA
BECMG 1523/1602 BKN025
PROB30 1603/1606 5000 BR



MET'MAP, la Météo Aéronautique d'un coup d'oeil ! - Copyright ORBIFLY Décembre 2007 - Disclaimer

ORBIFLY MET'MAP TEAM :

Programmation & Développement : Alexandra Zaïnal
Conception & Développement : Baudouin d'Aumeries
Co-Programmation & Développement : Marc-Olivier Méhu
Soutien technique & logistique : Manuel Goepfert

Contact : metmap@orbifly.com




SOURCES & CREDITS :

   NOAA